Time;durP1;ratioP1;P1;durP2;ratioP2;P2;SDS_P1;SDS_P2;PMS_P1;PMS_P2;Temp;Humidity;BMP_temperature;BMP_pressure;BME280_temperature;BME280_humidity;BME280_pressure;Samples;Min_cycle;Max_cycle;Signal;HPM_P1;HPM_P2
2022/03/31 00:00:34;;;;;;;24.38;15.98;;;;;;;;;;5093259;28;20269;-68
2022/03/31 00:03:03;;;;;;;23.63;16.75;;;;;;;;;;5093206;28;20198;-69
2022/03/31 00:05:30;;;;;;;25.48;16.15;;;;;;;;;;5093365;28;20228;-68
2022/03/31 00:07:58;;;;;;;28.35;17.45;;;;;;;;;;5093384;28;20236;-69
2022/03/31 00:10:26;;;;;;;29.65;16.05;;;;;;;;;;5092969;28;20252;-69
2022/03/31 00:12:54;;;;;;;26.60;15.45;;;;;;;;;;5093173;28;20194;-68
2022/03/31 00:15:22;;;;;;;31.13;16.50;;;;;;;;;;5093229;28;20209;-69
2022/03/31 00:17:51;;;;;;;29.33;17.13;;;;;;;;;;5093552;28;20222;-69
2022/03/31 00:20:18;;;;;;;23.65;16.00;;;;;;;;;;5092894;28;20204;-69
2022/03/31 00:22:45;;;;;;;32.03;17.73;;;;;;;;;;5093148;28;20190;-69
2022/03/31 00:25:13;;;;;;;22.08;16.35;;;;;;;;;;5094079;28;20290;-69
2022/03/31 00:27:40;;;;;;;24.02;15.88;;;;;;;;;;5096925;28;20220;-69
2022/03/31 00:30:09;;;;;;;28.42;18.27;;;;;;;;;;5096758;28;20222;-69
2022/03/31 00:32:37;;;;;;;23.50;15.27;;;;;;;;;;5096451;28;20193;-69
2022/03/31 00:35:06;;;;;;;25.38;17.52;;;;;;;;;;5096348;28;20196;-69
2022/03/31 00:37:33;;;;;;;28.85;15.95;;;;;;;;;;5096359;28;20214;-69
2022/03/31 00:40:01;;;;;;;24.60;18.13;;;;;;;;;;5096602;28;20205;-69
2022/03/31 00:42:29;;;;;;;25.98;15.82;;;;;;;;;;5096292;28;20200;-69
2022/03/31 00:44:56;;;;;;;30.02;18.35;;;;;;;;;;5096168;28;20197;-69
2022/03/31 00:47:23;;;;;;;19.13;14.63;;;;;;;;;;5096679;28;20290;-69
2022/03/31 00:49:50;;;;;;;26.73;17.52;;;;;;;;;;5096113;28;20200;-69
2022/03/31 00:52:19;;;;;;;28.08;17.00;;;;;;;;;;5096439;28;20297;-69
2022/03/31 00:54:46;;;;;;;24.65;15.73;;;;;;;;;;5096372;28;20281;-69
2022/03/31 00:57:15;;;;;;;24.42;15.07;;;;;;;;;;5096544;28;20202;-69
2022/03/31 00:59:43;;;;;;;25.55;15.45;;;;;;;;;;5095866;28;20199;-69
2022/03/31 01:02:12;;;;;;;28.55;17.35;;;;;;;;;;5096260;28;20284;-69
2022/03/31 01:04:40;;;;;;;32.90;17.60;;;;;;;;;;5095991;28;20595;-69
2022/03/31 01:07:07;;;;;;;24.00;16.25;;;;;;;;;;5096667;28;20197;-69
2022/03/31 01:09:36;;;;;;;28.65;17.48;;;;;;;;;;5095786;28;20559;-69
2022/03/31 01:12:04;;;;;;;35.08;19.55;;;;;;;;;;5096258;28;20203;-69
2022/03/31 01:14:31;;;;;;;27.58;17.20;;;;;;;;;;5095567;28;20285;-69
2022/03/31 01:16:58;;;;;;;24.95;16.17;;;;;;;;;;5096149;28;20546;-69
2022/03/31 01:19:25;;;;;;;27.25;16.55;;;;;;;;;;5095464;28;20258;-69
2022/03/31 01:21:53;;;;;;;27.75;17.70;;;;;;;;;;5095846;28;20198;-69
2022/03/31 01:24:21;;;;;;;29.75;17.58;;;;;;;;;;5095371;28;20685;-69
2022/03/31 01:26:48;;;;;;;31.67;19.83;;;;;;;;;;5095431;28;20289;-69
2022/03/31 01:29:16;;;;;;;30.00;17.10;;;;;;;;;;5095337;28;20198;-69
2022/03/31 01:31:43;;;;;;;27.77;16.05;;;;;;;;;;5095664;28;20249;-69
2022/03/31 01:34:10;;;;;;;25.55;16.02;;;;;;;;;;5095818;28;20203;-69
2022/03/31 01:36:37;;;;;;;29.13;18.20;;;;;;;;;;5094638;28;20204;-69
2022/03/31 01:39:05;;;;;;;37.25;17.20;;;;;;;;;;5095445;28;20577;-69
2022/03/31 01:41:34;;;;;;;28.75;17.27;;;;;;;;;;5095402;28;20199;-69
2022/03/31 01:44:01;;;;;;;29.52;17.95;;;;;;;;;;5095329;28;20559;-69
2022/03/31 01:46:29;;;;;;;28.80;16.90;;;;;;;;;;5094777;28;20286;-69
2022/03/31 01:48:56;;;;;;;25.33;16.80;;;;;;;;;;5094998;28;20265;-69
2022/03/31 01:51:23;;;;;;;26.58;17.20;;;;;;;;;;5094860;28;20200;-69
2022/03/31 01:53:51;;;;;;;27.15;16.42;;;;;;;;;;5095400;28;20195;-69
2022/03/31 01:56:18;;;;;;;35.65;16.95;;;;;;;;;;5094847;28;20610;-69
2022/03/31 01:58:46;;;;;;;27.08;16.13;;;;;;;;;;5094675;28;20684;-69
2022/03/31 02:01:13;;;;;;;28.73;16.52;;;;;;;;;;5094956;28;20195;-69
2022/03/31 02:03:41;;;;;;;31.30;18.20;;;;;;;;;;5095024;28;20190;-69
2022/03/31 02:06:08;;;;;;;27.70;15.85;;;;;;;;;;5094905;28;20652;-71
2022/03/31 02:08:36;;;;;;;37.03;17.55;;;;;;;;;;5095044;28;20222;-69
2022/03/31 02:11:03;;;;;;;24.42;16.33;;;;;;;;;;5094547;28;20285;-69
2022/03/31 02:13:31;;;;;;;29.88;17.90;;;;;;;;;;5094847;28;20191;-70
2022/03/31 02:15:59;;;;;;;23.48;17.05;;;;;;;;;;5094390;28;20239;-69
2022/03/31 02:18:26;;;;;;;33.58;17.02;;;;;;;;;;5094876;28;20755;-69
2022/03/31 02:20:54;;;;;;;34.20;19.60;;;;;;;;;;5094301;28;20200;-69
2022/03/31 02:23:21;;;;;;;35.17;19.60;;;;;;;;;;5094371;28;20252;-69
2022/03/31 02:25:48;;;;;;;27.10;17.30;;;;;;;;;;5094627;28;20289;-69
2022/03/31 02:28:15;;;;;;;31.52;18.40;;;;;;;;;;5094880;28;20282;-71
2022/03/31 02:30:43;;;;;;;28.42;18.08;;;;;;;;;;5094092;28;20282;-70
2022/03/31 02:33:11;;;;;;;32.78;19.00;;;;;;;;;;5094857;28;20199;-69
2022/03/31 02:35:38;;;;;;;29.83;18.73;;;;;;;;;;5094096;28;20368;-70
2022/03/31 02:38:06;;;;;;;29.75;18.30;;;;;;;;;;5094412;28;20252;-70
2022/03/31 02:40:33;;;;;;;31.33;19.35;;;;;;;;;;5094297;28;20193;-71
2022/03/31 02:43:00;;;;;;;32.78;22.23;;;;;;;;;;5094547;28;20251;-70
2022/03/31 02:45:28;;;;;;;34.58;18.27;;;;;;;;;;5093871;28;20272;-70
2022/03/31 02:47:55;;;;;;;37.78;21.05;;;;;;;;;;5094452;28;20207;-69
2022/03/31 02:50:23;;;;;;;36.95;20.55;;;;;;;;;;5093848;28;20198;-70
2022/03/31 02:55:35;;;;;;;30.90;17.92;;;;;;;;;;5094188;28;20573;-68
2022/03/31 02:58:04;;;;;;;37.13;17.95;;;;;;;;;;5093723;28;20249;-69
2022/03/31 03:00:32;;;;;;;30.98;17.88;;;;;;;;;;5093641;28;20287;-68
2022/03/31 03:02:59;;;;;;;30.20;18.88;;;;;;;;;;5093692;28;20206;-69
2022/03/31 03:05:28;;;;;;;28.05;18.55;;;;;;;;;;5093892;28;20290;-69
2022/03/31 03:07:55;;;;;;;37.00;19.88;;;;;;;;;;5093949;28;20223;-69
2022/03/31 03:10:22;;;;;;;36.55;21.60;;;;;;;;;;5093961;28;20198;-69
2022/03/31 03:12:50;;;;;;;31.75;17.63;;;;;;;;;;5093840;28;20278;-69
2022/03/31 03:15:18;;;;;;;38.17;20.75;;;;;;;;;;5094025;28;20206;-69
2022/03/31 03:17:47;;;;;;;30.77;19.38;;;;;;;;;;5094114;28;20618;-67
2022/03/31 03:20:15;;;;;;;32.20;18.55;;;;;;;;;;5093412;28;20651;-69
2022/03/31 03:22:45;;;;;;;30.13;18.73;;;;;;;;;;5093870;28;20225;-69
2022/03/31 03:25:15;;;;;;;29.13;17.05;;;;;;;;;;5093774;28;20593;-69
2022/03/31 03:27:42;;;;;;;29.48;18.15;;;;;;;;;;5093698;28;20203;-69
2022/03/31 03:30:10;;;;;;;32.88;20.17;;;;;;;;;;5093377;28;20663;-69
2022/03/31 03:32:38;;;;;;;28.58;17.58;;;;;;;;;;5093276;28;20204;-69
2022/03/31 03:35:05;;;;;;;26.98;17.27;;;;;;;;;;5093624;28;20197;-69
2022/03/31 03:37:33;;;;;;;32.08;17.95;;;;;;;;;;5093616;28;20190;-71
2022/03/31 03:40:03;;;;;;;32.45;18.30;;;;;;;;;;5093459;28;20213;-69
2022/03/31 03:42:30;;;;;;;23.92;16.15;;;;;;;;;;5093544;28;20186;-69
2022/03/31 03:44:57;;;;;;;24.60;16.75;;;;;;;;;;5093348;28;20194;-69
2022/03/31 03:47:25;;;;;;;24.67;16.75;;;;;;;;;;5093107;28;20292;-69
2022/03/31 03:49:52;;;;;;;28.67;18.45;;;;;;;;;;5093512;28;20607;-69
2022/03/31 03:52:19;;;;;;;29.67;17.23;;;;;;;;;;5093364;28;20190;-69
2022/03/31 03:54:47;;;;;;;31.27;18.48;;;;;;;;;;5093370;28;20194;-68
2022/03/31 03:57:15;;;;;;;26.80;15.27;;;;;;;;;;5093735;28;20707;-69
2022/03/31 03:59:43;;;;;;;26.30;15.20;;;;;;;;;;5093235;28;20753;-69
2022/03/31 04:02:10;;;;;;;27.95;17.00;;;;;;;;;;5097272;28;20193;-68
2022/03/31 04:04:37;;;;;;;30.48;17.42;;;;;;;;;;5097473;28;20221;-70
2022/03/31 04:07:04;;;;;;;28.13;17.08;;;;;;;;;;5096939;28;20559;-69
2022/03/31 04:09:31;;;;;;;27.70;15.75;;;;;;;;;;5097622;28;20651;-69
2022/03/31 04:11:59;;;;;;;27.17;16.63;;;;;;;;;;5096831;28;20199;-70
2022/03/31 04:14:27;;;;;;;27.27;16.30;;;;;;;;;;5097172;28;20206;-70
2022/03/31 04:16:56;;;;;;;27.40;15.98;;;;;;;;;;5097039;28;20202;-70
2022/03/31 04:19:23;;;;;;;27.70;17.65;;;;;;;;;;5096698;28;20305;-72
2022/03/31 04:21:50;;;;;;;31.65;17.13;;;;;;;;;;5097318;28;20201;-72
2022/03/31 04:24:18;;;;;;;27.38;16.58;;;;;;;;;;5096966;28;20201;-71
2022/03/31 04:26:45;;;;;;;25.88;15.40;;;;;;;;;;5097395;28;20198;-73
2022/03/31 04:29:12;;;;;;;29.55;16.35;;;;;;;;;;5095940;28;20281;-70
2022/03/31 04:31:42;;;;;;;26.08;17.30;;;;;;;;;;5095987;28;20229;-71
2022/03/31 04:34:10;;;;;;;26.95;16.02;;;;;;;;;;5096735;28;20210;-71
2022/03/31 04:36:37;;;;;;;24.45;16.35;;;;;;;;;;5095890;28;20306;-70
2022/03/31 04:39:05;;;;;;;27.55;16.90;;;;;;;;;;5096110;28;20567;-71
2022/03/31 04:41:32;;;;;;;18.95;13.55;;;;;;;;;;5096303;28;20190;-71
2022/03/31 04:43:59;;;;;;;25.42;15.10;;;;;;;;;;5096426;28;20240;-72
2022/03/31 04:46:27;;;;;;;31.92;17.45;;;;;;;;;;5095980;28;20226;-72
2022/03/31 04:48:55;;;;;;;26.92;17.25;;;;;;;;;;5095705;28;20670;-72
2022/03/31 04:51:22;;;;;;;29.20;16.60;;;;;;;;;;5095720;28;20194;-72
2022/03/31 04:53:50;;;;;;;30.13;17.73;;;;;;;;;;5095684;28;20261;-70
2022/03/31 04:56:17;;;;;;;27.63;17.67;;;;;;;;;;5096024;28;20204;-71
2022/03/31 04:58:45;;;;;;;25.08;16.88;;;;;;;;;;5095737;28;20226;-70
2022/03/31 05:01:12;;;;;;;29.90;17.80;;;;;;;;;;5095897;28;20547;-70
2022/03/31 05:03:39;;;;;;;34.08;19.20;;;;;;;;;;5095840;28;20199;-72
2022/03/31 05:06:08;;;;;;;27.20;17.70;;;;;;;;;;5095798;28;20646;-70
2022/03/31 05:08:36;;;;;;;30.25;18.35;;;;;;;;;;5095844;28;20201;-70
2022/03/31 05:11:03;;;;;;;34.10;17.35;;;;;;;;;;5094924;28;20205;-70
2022/03/31 05:13:30;;;;;;;26.67;16.77;;;;;;;;;;5094950;28;20199;-69
2022/03/31 05:15:58;;;;;;;35.38;17.88;;;;;;;;;;5095949;28;20193;-70
2022/03/31 05:18:25;;;;;;;28.55;18.73;;;;;;;;;;5096015;28;20203;-69
2022/03/31 05:20:52;;;;;;;32.85;18.90;;;;;;;;;;5096484;28;20253;-72
2022/03/31 05:23:21;;;;;;;32.75;17.45;;;;;;;;;;5095381;28;20679;-70
2022/03/31 05:25:49;;;;;;;29.67;18.08;;;;;;;;;;5095735;28;20218;-70
2022/03/31 05:28:16;;;;;;;25.88;17.75;;;;;;;;;;5095593;28;20196;-70
2022/03/31 05:30:44;;;;;;;27.35;17.73;;;;;;;;;;5095353;28;20205;-70
2022/03/31 05:33:11;;;;;;;31.85;18.75;;;;;;;;;;5095129;28;20252;-69
2022/03/31 05:35:38;;;;;;;28.38;17.38;;;;;;;;;;5095944;28;20536;-71
2022/03/31 05:38:06;;;;;;;29.25;18.90;;;;;;;;;;5095385;28;20191;-70
2022/03/31 05:40:35;;;;;;;28.95;19.38;;;;;;;;;;5095059;28;20333;-70
2022/03/31 05:43:02;;;;;;;30.65;20.00;;;;;;;;;;5095838;28;20601;-69
2022/03/31 05:45:30;;;;;;;33.17;18.92;;;;;;;;;;5095364;28;20230;-69
2022/03/31 05:47:57;;;;;;;33.92;18.75;;;;;;;;;;5095623;28;20202;-69
2022/03/31 05:50:24;;;;;;;30.40;18.17;;;;;;;;;;5094977;28;20204;-70
2022/03/31 05:52:51;;;;;;;28.90;18.17;;;;;;;;;;5094800;28;20205;-70
2022/03/31 05:55:19;;;;;;;30.17;17.80;;;;;;;;;;5095098;28;20199;-70
2022/03/31 05:57:48;;;;;;;31.90;19.73;;;;;;;;;;5094970;28;20197;-70
2022/03/31 06:00:16;;;;;;;30.55;21.05;;;;;;;;;;5094643;28;20220;-70
2022/03/31 06:02:44;;;;;;;37.03;19.65;;;;;;;;;;5094930;28;20259;-70
2022/03/31 06:05:11;;;;;;;34.35;19.85;;;;;;;;;;5095014;28;20209;-70
2022/03/31 06:07:38;;;;;;;29.27;19.33;;;;;;;;;;5094597;28;20206;-70
2022/03/31 06:10:06;;;;;;;31.85;19.45;;;;;;;;;;5095665;28;20207;-69
2022/03/31 06:12:34;;;;;;;31.35;18.48;;;;;;;;;;5094533;28;20283;-70
2022/03/31 06:15:03;;;;;;;29.90;18.20;;;;;;;;;;5095018;28;20202;-70
2022/03/31 06:17:30;;;;;;;29.20;18.67;;;;;;;;;;5094568;28;20248;-70
2022/03/31 06:19:57;;;;;;;31.52;18.27;;;;;;;;;;5094553;28;20222;-70
2022/03/31 06:22:24;;;;;;;32.72;18.48;;;;;;;;;;5094224;28;20191;-70
2022/03/31 06:24:51;;;;;;;33.65;20.42;;;;;;;;;;5094358;28;20307;-70
2022/03/31 06:27:18;;;;;;;32.88;18.40;;;;;;;;;;5094301;28;20191;-70
2022/03/31 06:29:46;;;;;;;32.10;22.08;;;;;;;;;;5094426;28;20203;-70
2022/03/31 06:32:14;;;;;;;32.42;18.85;;;;;;;;;;5094183;28;20190;-70
2022/03/31 06:34:42;;;;;;;32.22;19.80;;;;;;;;;;5094342;28;20226;-70
2022/03/31 06:37:09;;;;;;;32.10;22.27;;;;;;;;;;5094922;28;20534;-70
2022/03/31 06:39:37;;;;;;;35.25;21.58;;;;;;;;;;5094239;28;20633;-70
2022/03/31 06:42:04;;;;;;;29.52;19.60;;;;;;;;;;5094377;28;20194;-70
2022/03/31 06:44:31;;;;;;;31.77;18.92;;;;;;;;;;5094182;28;20634;-70
2022/03/31 06:46:59;;;;;;;26.15;17.52;;;;;;;;;;5094516;28;20237;-70
2022/03/31 06:49:27;;;;;;;27.70;18.10;;;;;;;;;;5093819;28;20269;-70
2022/03/31 06:51:54;;;;;;;24.52;17.88;;;;;;;;;;5094249;28;20556;-70
2022/03/31 06:54:22;;;;;;;25.55;17.88;;;;;;;;;;5094294;28;20203;-70
2022/03/31 06:56:51;;;;;;;25.52;17.38;;;;;;;;;;5094581;28;20195;-70
2022/03/31 06:59:20;;;;;;;28.27;18.08;;;;;;;;;;5094007;28;20301;-70
2022/03/31 07:01:48;;;;;;;24.58;16.27;;;;;;;;;;5094157;28;20192;-70
2022/03/31 07:04:16;;;;;;;25.55;16.02;;;;;;;;;;5093874;28;20192;-70
2022/03/31 07:06:44;;;;;;;21.60;15.00;;;;;;;;;;5094102;28;20644;-70
2022/03/31 07:09:12;;;;;;;20.38;14.50;;;;;;;;;;5093890;28;20235;-70
2022/03/31 07:11:39;;;;;;;25.15;15.38;;;;;;;;;;5093595;28;20282;-70
2022/03/31 07:14:06;;;;;;;24.02;15.93;;;;;;;;;;5093835;28;20197;-71
2022/03/31 07:16:33;;;;;;;28.02;17.40;;;;;;;;;;5094245;28;20283;-70
2022/03/31 07:19:01;;;;;;;24.85;15.18;;;;;;;;;;5093436;28;20202;-70
2022/03/31 07:21:29;;;;;;;22.38;15.25;;;;;;;;;;5093359;28;20716;-70
2022/03/31 07:23:57;;;;;;;25.90;15.60;;;;;;;;;;5094293;28;20197;-70
2022/03/31 07:26:24;;;;;;;23.67;14.88;;;;;;;;;;5093779;28;20533;-70
2022/03/31 07:28:52;;;;;;;26.60;15.65;;;;;;;;;;5093585;28;20306;-70
2022/03/31 07:31:19;;;;;;;26.30;15.95;;;;;;;;;;5093276;28;20652;-70
2022/03/31 07:33:46;;;;;;;26.58;15.75;;;;;;;;;;5093245;28;20203;-70
2022/03/31 07:36:14;;;;;;;21.67;15.70;;;;;;;;;;5096900;28;20296;-70
2022/03/31 07:38:41;;;;;;;27.52;15.35;;;;;;;;;;5097815;28;20276;-70
2022/03/31 07:41:11;;;;;;;20.20;14.98;;;;;;;;;;5097681;28;20216;-70
2022/03/31 07:43:39;;;;;;;26.00;15.45;;;;;;;;;;5097501;28;20180;-70
2022/03/31 07:46:06;;;;;;;23.67;14.15;;;;;;;;;;5097502;28;20233;-70
2022/03/31 07:48:33;;;;;;;23.98;15.00;;;;;;;;;;5097353;28;20286;-70
2022/03/31 07:51:01;;;;;;;21.00;14.70;;;;;;;;;;5098081;28;20211;-70
2022/03/31 07:53:32;;;;;;;25.13;15.32;;;;;;;;;;5098141;28;20198;-70
2022/03/31 07:56:00;;;;;;;24.15;15.38;;;;;;;;;;5097798;28;20618;-70
2022/03/31 07:58:29;;;;;;;21.98;16.20;;;;;;;;;;5097446;28;20226;-70
2022/03/31 08:00:56;;;;;;;20.85;13.80;;;;;;;;;;5096968;28;20225;-70
2022/03/31 08:03:24;;;;;;;25.75;13.93;;;;;;;;;;5098071;28;20197;-70
2022/03/31 08:05:51;;;;;;;24.50;12.98;;;;;;;;;;5097277;28;20287;-70
2022/03/31 08:08:19;;;;;;;16.38;12.25;;;;;;;;;;5096824;28;20223;-70
2022/03/31 08:10:46;;;;;;;19.58;13.25;;;;;;;;;;5096070;28;20201;-70
2022/03/31 08:13:13;;;;;;;23.42;13.90;;;;;;;;;;5097398;28;20196;-70
2022/03/31 08:15:42;;;;;;;21.27;15.00;;;;;;;;;;5096671;28;20200;-70
2022/03/31 08:18:10;;;;;;;20.77;14.23;;;;;;;;;;5097639;28;20197;-70
2022/03/31 08:20:37;;;;;;;21.52;14.05;;;;;;;;;;5096603;28;20211;-70
2022/03/31 08:23:04;;;;;;;21.50;13.48;;;;;;;;;;5097464;28;20358;-70
2022/03/31 08:25:32;;;;;;;22.83;13.68;;;;;;;;;;5096531;28;20192;-70
2022/03/31 08:27:59;;;;;;;20.20;13.60;;;;;;;;;;5096904;28;20197;-70
2022/03/31 08:30:28;;;;;;;20.48;14.00;;;;;;;;;;5096688;28;20289;-70
2022/03/31 08:32:56;;;;;;;30.58;16.63;;;;;;;;;;5096889;28;20228;-70
2022/03/31 08:35:27;;;;;;;21.77;13.63;;;;;;;;;;5096214;28;20681;-70
2022/03/31 08:37:54;;;;;;;20.35;13.60;;;;;;;;;;5096950;28;20200;-70
2022/03/31 08:40:21;;;;;;;28.23;16.13;;;;;;;;;;5096089;28;20583;-70
2022/03/31 08:42:49;;;;;;;22.50;15.43;;;;;;;;;;5096559;28;20200;-70
2022/03/31 08:45:17;;;;;;;31.02;16.50;;;;;;;;;;5095875;28;20273;-70
2022/03/31 08:47:45;;;;;;;22.75;15.98;;;;;;;;;;5096331;28;20234;-70
2022/03/31 08:50:14;;;;;;;24.45;14.40;;;;;;;;;;5096308;28;20210;-70
2022/03/31 08:52:42;;;;;;;24.77;15.68;;;;;;;;;;5096118;28;20291;-70
2022/03/31 08:55:10;;;;;;;23.13;16.45;;;;;;;;;;5095920;28;20283;-70
2022/03/31 08:57:41;;;;;;;27.05;16.98;;;;;;;;;;5096186;28;20207;-70
2022/03/31 09:00:11;;;;;;;27.92;18.73;;;;;;;;;;5096172;28;20246;-70
2022/03/31 09:02:39;;;;;;;32.53;18.15;;;;;;;;;;5096206;28;20205;-70
2022/03/31 09:05:09;;;;;;;35.38;18.40;;;;;;;;;;5096244;28;20547;-70
2022/03/31 09:07:37;;;;;;;28.23;20.30;;;;;;;;;;5096227;28;20287;-70
2022/03/31 09:10:05;;;;;;;41.17;25.60;;;;;;;;;;5095966;28;20221;-70
2022/03/31 09:12:39;;;;;;;29.27;20.42;;;;;;;;;;5095993;28;20256;-70
2022/03/31 09:15:10;;;;;;;28.40;21.23;;;;;;;;;;5095846;28;20561;-69
2022/03/31 09:17:37;;;;;;;26.92;18.02;;;;;;;;;;5095621;28;20192;-70
2022/03/31 09:20:05;;;;;;;30.40;19.90;;;;;;;;;;5095389;28;20691;-70
2022/03/31 09:22:33;;;;;;;34.13;22.23;;;;;;;;;;5095842;28;20287;-70
2022/03/31 09:25:05;;;;;;;31.27;19.98;;;;;;;;;;5095776;28;20232;-69
2022/03/31 09:27:32;;;;;;;32.28;22.00;;;;;;;;;;5096265;28;20287;-70
2022/03/31 09:30:05;;;;;;;38.60;21.25;;;;;;;;;;5095388;28;20208;-70
2022/03/31 09:32:33;;;;;;;34.33;21.67;;;;;;;;;;5095363;28;20190;-70
2022/03/31 09:35:06;;;;;;;32.80;21.15;;;;;;;;;;5095561;28;20199;-70
2022/03/31 09:37:33;;;;;;;35.80;22.85;;;;;;;;;;5095298;28;20608;-70
2022/03/31 09:40:01;;;;;;;34.97;22.65;;;;;;;;;;5095690;28;20193;-70
2022/03/31 09:42:29;;;;;;;36.10;22.00;;;;;;;;;;5094842;28;20195;-70
2022/03/31 09:44:57;;;;;;;28.20;20.95;;;;;;;;;;5094913;28;20204;-69
2022/03/31 09:47:26;;;;;;;33.60;21.95;;;;;;;;;;5095400;28;20224;-69
2022/03/31 09:49:54;;;;;;;32.05;21.23;;;;;;;;;;5095265;28;20290;-70
2022/03/31 09:52:22;;;;;;;37.83;24.83;;;;;;;;;;5094755;28;20196;-70
2022/03/31 09:54:50;;;;;;;39.25;22.77;;;;;;;;;;5095273;28;20196;-70
2022/03/31 09:57:21;;;;;;;34.33;21.85;;;;;;;;;;5094698;28;20196;-70
2022/03/31 09:59:52;;;;;;;32.70;22.95;;;;;;;;;;5094615;28;20316;-70
2022/03/31 10:02:19;;;;;;;32.40;21.85;;;;;;;;;;5094557;28;20217;-70
2022/03/31 10:04:47;;;;;;;33.55;21.73;;;;;;;;;;5094696;28;20679;-70
2022/03/31 10:07:14;;;;;;;34.08;23.02;;;;;;;;;;5094997;28;20302;-70
2022/03/31 10:09:44;;;;;;;34.15;22.27;;;;;;;;;;5095037;28;20203;-70
2022/03/31 10:12:16;;;;;;;32.50;22.20;;;;;;;;;;5094380;28;20256;-70
2022/03/31 10:14:46;;;;;;;32.80;22.15;;;;;;;;;;5095243;28;20655;-70
2022/03/31 10:17:15;;;;;;;32.47;21.80;;;;;;;;;;5094516;28;20204;-70
2022/03/31 10:19:44;;;;;;;32.60;23.27;;;;;;;;;;5094683;28;20205;-70
2022/03/31 10:24:41;;;;;;;32.13;22.33;;;;;;;;;;5094497;28;20220;-70
2022/03/31 10:25:01;;;;;;;35.97;23.35;;;;;;;;;;5094375;28;20186;-70
2022/03/31 10:27:29;;;;;;;34.15;22.55;;;;;;;;;;5094185;28;20200;-70
2022/03/31 10:30:08;;;;;;;38.17;24.23;;;;;;;;;;5094536;28;20232;-70
2022/03/31 10:32:37;;;;;;;36.42;22.90;;;;;;;;;;5094106;28;20655;-70
2022/03/31 10:35:06;;;;;;;34.75;23.27;;;;;;;;;;5094136;28;20736;-70
2022/03/31 10:37:34;;;;;;;35.88;23.08;;;;;;;;;;5094357;28;20192;-69
2022/03/31 10:40:03;;;;;;;34.45;22.45;;;;;;;;;;5094115;28;20211;-70
2022/03/31 10:42:30;;;;;;;42.60;25.63;;;;;;;;;;5093844;28;20217;-70
2022/03/31 10:45:12;;;;;;;37.78;24.48;;;;;;;;;;5094854;28;20189;-70
2022/03/31 10:47:42;;;;;;;37.67;26.13;;;;;;;;;;5094613;28;20197;-70
2022/03/31 10:50:23;;;;;;;40.67;24.92;;;;;;;;;;5094447;28;20220;-70
2022/03/31 10:52:58;;;;;;;42.10;24.80;;;;;;;;;;5093820;28;20184;-70
2022/03/31 10:55:34;;;;;;;38.03;25.20;;;;;;;;;;5093835;28;20281;-70
2022/03/31 10:58:01;;;;;;;38.85;25.38;;;;;;;;;;5094138;28;20199;-70
2022/03/31 11:00:28;;;;;;;38.40;25.67;;;;;;;;;;5094364;28;20217;-71
2022/03/31 11:02:57;;;;;;;42.95;26.67;;;;;;;;;;5093545;28;20197;-70
2022/03/31 11:05:25;;;;;;;41.63;27.10;;;;;;;;;;5093935;28;20284;-70
2022/03/31 11:08:02;;;;;;;42.22;25.73;;;;;;;;;;5093833;28;20196;-70
2022/03/31 11:10:29;;;;;;;43.60;25.67;;;;;;;;;;5093935;28;20186;-70
2022/03/31 11:12:58;;;;;;;48.25;28.00;;;;;;;;;;5093414;28;20202;-70
2022/03/31 11:15:26;;;;;;;45.05;26.45;;;;;;;;;;5093451;28;20239;-70
2022/03/31 11:18:00;;;;;;;40.55;25.77;;;;;;;;;;5093305;28;20246;-70
2022/03/31 11:20:29;;;;;;;40.80;25.40;;;;;;;;;;5094116;28;20185;-70
2022/03/31 11:22:59;;;;;;;44.28;26.35;;;;;;;;;;5093241;28;20201;-70
2022/03/31 11:25:27;;;;;;;39.42;25.92;;;;;;;;;;5093471;28;20181;-69
2022/03/31 11:27:56;;;;;;;44.45;25.40;;;;;;;;;;5093223;28;20202;-70
2022/03/31 11:30:25;;;;;;;42.67;25.77;;;;;;;;;;5093262;28;20200;-70
2022/03/31 11:32:54;;;;;;;48.47;28.08;;;;;;;;;;5093229;28;20197;-70
2022/03/31 11:35:22;;;;;;;39.70;24.33;;;;;;;;;;5093589;28;20283;-70
2022/03/31 11:37:52;;;;;;;40.42;25.13;;;;;;;;;;5093223;28;20196;-70
2022/03/31 11:40:20;;;;;;;49.28;28.88;;;;;;;;;;5093496;28;20236;-70
2022/03/31 11:42:48;;;;;;;47.03;30.15;;;;;;;;;;5093610;28;20224;-70
2022/03/31 11:45:26;;;;;;;42.72;27.70;;;;;;;;;;5093308;28;20208;-70
2022/03/31 11:47:57;;;;;;;46.28;28.60;;;;;;;;;;5093839;28;20243;-70
2022/03/31 11:50:24;;;;;;;44.97;26.95;;;;;;;;;;5093199;28;20288;-70
2022/03/31 11:52:53;;;;;;;48.42;27.67;;;;;;;;;;5093299;28;20230;-70
2022/03/31 11:55:21;;;;;;;45.22;28.67;;;;;;;;;;5093890;28;20198;-69
2022/03/31 11:57:52;;;;;;;42.22;25.98;;;;;;;;;;5093243;28;20249;-68
2022/03/31 12:00:20;;;;;;;40.28;25.15;;;;;;;;;;5093119;28;20201;-68
2022/03/31 12:02:55;;;;;;;39.92;25.40;;;;;;;;;;5092800;28;20226;-68
2022/03/31 12:05:23;;;;;;;42.20;26.02;;;;;;;;;;5093359;28;20190;-68
2022/03/31 12:07:51;;;;;;;49.83;29.20;;;;;;;;;;5092938;28;20193;-69
2022/03/31 12:10:19;;;;;;;46.17;27.42;;;;;;;;;;5092928;28;20364;-68
2022/03/31 12:12:48;;;;;;;41.72;27.52;;;;;;;;;;5092299;28;20299;-68
2022/03/31 12:15:20;;;;;;;40.38;24.80;;;;;;;;;;5092450;28;20205;-68
2022/03/31 12:17:57;;;;;;;40.17;25.58;;;;;;;;;;5093268;28;20224;-68
2022/03/31 12:20:24;;;;;;;40.83;23.60;;;;;;;;;;5092506;28;20181;-68
2022/03/31 12:22:52;;;;;;;37.65;24.75;;;;;;;;;;5096400;28;20220;-68
2022/03/31 12:25:30;;;;;;;34.10;23.63;;;;;;;;;;5096303;28;20207;-68
2022/03/31 12:27:58;;;;;;;31.63;20.95;;;;;;;;;;5096501;28;20187;-68
2022/03/31 12:30:26;;;;;;;34.15;20.92;;;;;;;;;;5096500;28;20696;-68
2022/03/31 12:32:55;;;;;;;36.08;23.23;;;;;;;;;;5096346;28;20678;-68
2022/03/31 12:35:31;;;;;;;36.70;23.55;;;;;;;;;;5096156;28;20647;-68
2022/03/31 12:37:58;;;;;;;32.92;21.38;;;;;;;;;;5095810;28;20676;-68
2022/03/31 12:40:26;;;;;;;35.25;21.75;;;;;;;;;;5096449;28;20196;-68
2022/03/31 12:42:55;;;;;;;37.00;22.42;;;;;;;;;;5096191;28;20574;-68
2022/03/31 12:45:24;;;;;;;33.45;22.15;;;;;;;;;;5095950;28;20200;-68
2022/03/31 12:47:51;;;;;;;32.80;20.48;;;;;;;;;;5095793;28;20276;-68
2022/03/31 12:50:19;;;;;;;30.00;21.00;;;;;;;;;;5095845;28;20295;-68
2022/03/31 12:52:53;;;;;;;30.20;19.50;;;;;;;;;;5096160;28;20196;-69
2022/03/31 12:55:27;;;;;;;29.92;20.30;;;;;;;;;;5095553;28;20654;-68
2022/03/31 12:58:00;;;;;;;36.60;21.85;;;;;;;;;;5095978;28;20185;-68
2022/03/31 13:00:28;;;;;;;28.85;19.80;;;;;;;;;;5095940;28;20649;-67
2022/03/31 13:02:56;;;;;;;29.42;17.95;;;;;;;;;;5095309;28;20216;-68
2022/03/31 13:05:24;;;;;;;24.65;18.73;;;;;;;;;;5095858;28;20285;-66
2022/03/31 13:07:53;;;;;;;26.40;19.17;;;;;;;;;;5095768;28;20196;-67
2022/03/31 13:10:21;;;;;;;26.35;17.63;;;;;;;;;;5096050;28;20224;-67
2022/03/31 13:12:48;;;;;;;24.00;18.13;;;;;;;;;;5096096;28;20251;-67
2022/03/31 13:15:17;;;;;;;26.23;18.20;;;;;;;;;;5095947;28;20248;-69
2022/03/31 13:17:45;;;;;;;26.25;17.15;;;;;;;;;;5096245;28;20247;-67
2022/03/31 13:20:13;;;;;;;25.88;18.17;;;;;;;;;;5095362;28;20627;-67
2022/03/31 13:22:40;;;;;;;25.35;17.88;;;;;;;;;;5095452;28;20230;-68
2022/03/31 13:25:09;;;;;;;25.15;18.10;;;;;;;;;;5095272;28;20201;-67
2022/03/31 13:27:36;;;;;;;24.65;16.55;;;;;;;;;;5095121;28;20197;-68
2022/03/31 13:30:05;;;;;;;21.98;16.75;;;;;;;;;;5095738;28;20198;-68
2022/03/31 13:32:34;;;;;;;21.08;15.68;;;;;;;;;;5094433;28;20206;-68
2022/03/31 13:35:01;;;;;;;22.85;15.38;;;;;;;;;;5095057;28;20291;-68
2022/03/31 13:37:28;;;;;;;23.55;16.75;;;;;;;;;;5095160;28;20199;-67
2022/03/31 13:39:56;;;;;;;21.75;16.65;;;;;;;;;;5095596;28;20199;-69
2022/03/31 13:42:23;;;;;;;26.52;17.13;;;;;;;;;;5094954;28;20612;-68
2022/03/31 13:44:51;;;;;;;22.88;16.70;;;;;;;;;;5094667;28;20281;-69
2022/03/31 13:47:18;;;;;;;19.63;15.85;;;;;;;;;;5094906;28;20240;-68
2022/03/31 13:49:47;;;;;;;21.73;15.77;;;;;;;;;;5095180;28;20201;-69
2022/03/31 13:52:14;;;;;;;19.75;16.60;;;;;;;;;;5094894;28;20210;-69
2022/03/31 13:54:41;;;;;;;20.17;15.75;;;;;;;;;;5094789;28;20226;-69
2022/03/31 14:01:07;;;;;;;26.92;17.65;;;;;;;;;;5094714;28;20200;-69
2022/03/31 14:02:45;;;;;;;20.90;16.98;;;;;;;;;;5094324;28;20315;-68
2022/03/31 14:05:14;;;;;;;22.17;16.65;;;;;;;;;;5093945;28;20198;-69
2022/03/31 14:07:43;;;;;;;21.35;16.95;;;;;;;;;;5094615;28;20189;-68
2022/03/31 14:10:11;;;;;;;22.92;16.50;;;;;;;;;;5094867;28;20201;-68
2022/03/31 14:12:40;;;;;;;21.13;15.50;;;;;;;;;;5094599;28;20665;-68
2022/03/31 14:15:07;;;;;;;26.25;18.13;;;;;;;;;;5094371;28;20203;-68
2022/03/31 14:17:35;;;;;;;23.65;16.00;;;;;;;;;;5094860;28;20206;-68
2022/03/31 14:20:02;;;;;;;25.80;18.52;;;;;;;;;;5094383;28;20205;-69
2022/03/31 14:22:30;;;;;;;27.40;18.73;;;;;;;;;;5094286;28;20216;-69
2022/03/31 14:24:58;;;;;;;29.23;19.85;;;;;;;;;;5094099;28;20191;-68
2022/03/31 14:27:25;;;;;;;22.73;17.20;;;;;;;;;;5093917;28;20735;-68